Time;durP1;ratioP1;P1;durP2;ratioP2;P2;SDS_P1;SDS_P2;PMS_P1;PMS_P2;Temp;Humidity;BMP_temperature;BMP_pressure;BME280_temperature;BME280_humidity;BME280_pressure;Samples;Min_cycle;Max_cycle;Signal;HPM_P1;HPM_P2
2022/07/16 00:03:02;;;;;;;3.72;1.48;;;19.10;67.80;;;;;;5063110;28;20078;-82
2022/07/16 00:05:28;;;;;;;5.70;1.38;;;19.10;67.90;;;;;;5061981;28;20021;-82
2022/07/16 00:07:54;;;;;;;6.35;1.58;;;19.10;67.90;;;;;;5055183;28;20025;-83
2022/07/16 00:10:21;;;;;;;4.47;1.20;;;19.10;67.90;;;;;;5043120;28;20071;-84
2022/07/16 00:12:47;;;;;;;4.70;1.77;;;19.10;68.10;;;;;;5044627;28;20037;-83
2022/07/16 00:15:13;;;;;;;3.90;1.55;;;19.10;68.30;;;;;;5045024;28;20032;-83
2022/07/16 00:17:39;;;;;;;3.33;1.52;;;19.10;68.10;;;;;;5061136;28;20036;-84
2022/07/16 00:20:06;;;;;;;4.63;1.60;;;19.10;68.20;;;;;;5046840;28;20486;-83
2022/07/16 00:22:32;;;;;;;3.05;1.70;;;19.10;68.30;;;;;;5043454;28;20111;-83
2022/07/16 00:24:58;;;;;;;4.75;1.60;;;19.00;68.30;;;;;;5063126;28;20483;-84
2022/07/16 00:27:24;;;;;;;6.38;1.98;;;19.00;68.20;;;;;;5043740;28;20380;-82
2022/07/16 00:29:50;;;;;;;6.90;1.55;;;19.00;68.30;;;;;;5038802;28;20036;-83
2022/07/16 00:32:16;;;;;;;3.78;1.70;;;19.00;68.80;;;;;;5061515;28;20044;-81
2022/07/16 00:34:42;;;;;;;9.50;4.60;;;19.00;68.80;;;;;;5047930;28;20500;-83
2022/07/16 00:37:08;;;;;;;4.47;3.13;;;19.00;68.90;;;;;;5062106;28;20094;-84
2022/07/16 00:39:34;;;;;;;7.47;2.53;;;18.90;69.10;;;;;;5062088;28;20040;-84
2022/07/16 00:42:00;;;;;;;4.35;2.65;;;18.90;68.90;;;;;;5062747;28;20519;-82
2022/07/16 00:44:26;;;;;;;7.60;2.53;;;18.90;69.00;;;;;;5061590;28;20428;-83
2022/07/16 00:46:52;;;;;;;4.88;1.77;;;18.90;69.20;;;;;;5062378;28;20029;-83
2022/07/16 00:49:19;;;;;;;4.88;1.77;;;18.90;69.60;;;;;;5063676;28;20066;-83
2022/07/16 00:51:48;;;;;;;3.90;2.03;;;18.90;69.40;;;;;;5062015;28;20190;-82
2022/07/16 00:54:14;;;;;;;5.90;2.03;;;18.80;69.40;;;;;;5062426;28;20434;-83
2022/07/16 00:56:41;;;;;;;4.35;1.80;;;18.80;70.30;;;;;;5043280;28;20782;-82
2022/07/16 00:59:06;;;;;;;4.20;1.77;;;18.80;70.40;;;;;;5062165;28;20040;-84
2022/07/16 01:01:33;;;;;;;6.05;1.90;;;18.80;70.70;;;;;;5030888;28;20037;-84
2022/07/16 01:03:59;;;;;;;7.20;1.95;;;18.80;70.70;;;;;;5059987;28;20124;-83
2022/07/16 01:06:27;;;;;;;3.83;1.45;;;18.80;70.90;;;;;;5053279;28;20037;-84
2022/07/16 01:08:54;;;;;;;5.57;1.70;;;18.80;71.10;;;;;;5061402;28;20119;-85
2022/07/16 01:11:20;;;;;;;6.22;1.83;;;18.70;71.10;;;;;;5061921;28;20032;-86
2022/07/16 01:13:48;;;;;;;4.45;1.65;;;18.70;71.30;;;;;;5061662;28;20029;-86
2022/07/16 01:16:16;;;;;;;6.20;1.63;;;18.70;71.40;;;;;;5060954;28;20039;-86
2022/07/16 01:18:43;;;;;;;4.75;1.60;;;18.70;71.10;;;;;;5062050;28;20043;-86
2022/07/16 01:21:09;;;;;;;4.90;1.60;;;18.60;71.60;;;;;;5054595;28;20029;-85
2022/07/16 01:23:35;;;;;;;4.60;1.63;;;18.60;71.80;;;;;;5062300;28;20140;-86
2022/07/16 01:26:02;;;;;;;4.65;1.80;;;18.60;72.60;;;;;;5060465;28;20050;-86
2022/07/16 01:28:28;;;;;;;4.53;1.70;;;18.50;72.30;;;;;;5061536;28;20558;-86
2022/07/16 01:30:54;;;;;;;4.78;1.85;;;18.50;72.10;;;;;;5051988;28;20033;-85
2022/07/16 01:33:34;;;;;;;5.13;1.63;;;18.50;72.60;;;;;;5043170;28;20032;-82
2022/07/16 01:36:03;;;;;;;6.38;1.98;;;18.60;72.60;;;;;;5036302;28;20036;-85
2022/07/16 01:38:29;;;;;;;4.97;1.83;;;18.60;72.90;;;;;;5030773;28;20146;-83
2022/07/16 01:40:55;;;;;;;2.70;1.77;;;18.60;72.30;;;;;;5064238;28;20059;-86
2022/07/16 01:43:25;;;;;;;3.97;1.60;;;18.70;72.40;;;;;;5061825;28;20028;-81
2022/07/16 01:45:52;;;;;;;3.95;1.73;;;18.70;72.80;;;;;;5084784;28;20033;-82
2022/07/16 01:48:19;;;;;;;7.47;1.63;;;18.70;72.80;;;;;;5086489;28;20041;-80
2022/07/16 01:50:45;;;;;;;3.22;1.50;;;18.60;73.20;;;;;;5079488;28;20041;-83
2022/07/16 01:53:12;;;;;;;3.70;1.63;;;18.60;73.70;;;;;;5086986;28;20036;-82
2022/07/16 01:55:39;;;;;;;6.47;2.13;;;18.60;74.10;;;;;;5074736;28;20040;-81
2022/07/16 01:58:06;;;;;;;4.05;1.70;;;18.60;74.00;;;;;;5085686;28;20060;-82
2022/07/16 02:00:34;;;;;;;2.13;1.60;;;18.60;74.30;;;;;;5083449;28;20052;-82
2022/07/16 02:03:00;;;;;;;4.05;1.95;;;18.60;74.30;;;;;;5064941;28;20020;-84
2022/07/16 02:05:26;;;;;;;4.38;1.70;;;18.60;74.30;;;;;;5045266;28;20029;-84
2022/07/16 02:07:52;;;;;;;3.10;1.70;;;18.50;74.60;;;;;;5064107;28;20102;-83
2022/07/16 02:10:18;;;;;;;4.20;1.77;;;18.50;73.70;;;;;;5063644;28;20052;-82
2022/07/16 02:12:45;;;;;;;5.47;1.73;;;18.50;74.40;;;;;;5044614;28;20028;-83
2022/07/16 02:15:11;;;;;;;5.10;2.08;;;18.50;75.00;;;;;;5061465;28;20029;-82
2022/07/16 02:17:38;;;;;;;5.93;2.17;;;18.50;74.80;;;;;;5062089;28;20052;-80
2022/07/16 02:20:06;;;;;;;5.55;2.10;;;18.50;75.20;;;;;;5066393;28;20063;-82
2022/07/16 02:22:32;;;;;;;8.95;2.40;;;18.40;74.00;;;;;;5064774;28;20044;-83
2022/07/16 02:24:59;;;;;;;5.88;1.95;;;18.50;74.40;;;;;;5052137;28;20071;-80
2022/07/16 02:27:25;;;;;;;6.28;2.08;;;18.50;74.70;;;;;;5090520;28;20048;-79
2022/07/16 02:29:51;;;;;;;3.95;2.03;;;18.60;74.80;;;;;;5060058;28;20032;-80
2022/07/16 02:32:17;;;;;;;7.97;2.35;;;18.70;73.50;;;;;;5073690;28;20091;-81
2022/07/16 02:34:43;;;;;;;5.68;1.73;;;19.00;74.00;;;;;;5076973;28;20078;-83
2022/07/16 02:37:09;;;;;;;4.13;2.03;;;19.30;74.00;;;;;;5090621;28;20077;-82
2022/07/16 02:39:35;;;;;;;5.32;2.15;;;19.50;73.90;;;;;;5089685;28;20053;-81
2022/07/16 02:42:01;;;;;;;5.20;1.90;;;19.70;73.40;;;;;;5082359;28;20036;-81
2022/07/16 02:44:27;;;;;;;4.53;1.75;;;20.00;73.00;;;;;;5068133;28;20527;-84
2022/07/16 02:46:53;;;;;;;5.70;2.20;;;20.20;73.30;;;;;;5070451;28;20119;-83
2022/07/16 02:49:19;;;;;;;4.65;2.05;;;20.40;72.40;;;;;;5049007;28;20063;-84
2022/07/16 02:51:45;;;;;;;7.05;2.17;;;20.60;71.70;;;;;;5066360;28;20074;-84
2022/07/16 02:54:11;;;;;;;3.85;1.80;;;20.80;71.10;;;;;;5067519;28;20040;-84
2022/07/16 02:56:36;;;;;;;3.38;1.92;;;21.00;70.60;;;;;;5052033;28;20036;-82
2022/07/16 02:59:03;;;;;;;4.55;2.17;;;21.20;69.90;;;;;;5064000;28;20068;-84
2022/07/16 03:01:29;;;;;;;4.50;2.05;;;21.40;69.30;;;;;;5064554;28;20040;-82
2022/07/16 03:03:55;;;;;;;4.15;2.35;;;21.50;68.70;;;;;;5063742;28;20064;-83
2022/07/16 03:06:20;;;;;;;5.82;2.20;;;21.50;67.80;;;;;;5062578;28;20059;-81
2022/07/16 03:08:48;;;;;;;5.15;1.80;;;21.50;68.30;;;;;;5064265;28;20391;-84
2022/07/16 03:11:15;;;;;;;3.70;1.75;;;21.40;68.20;;;;;;5063789;28;20027;-84
2022/07/16 03:13:40;;;;;;;9.32;1.98;;;21.20;67.80;;;;;;5054581;28;20163;-83
2022/07/16 03:16:07;;;;;;;4.93;2.00;;;21.00;68.10;;;;;;5062467;28;20071;-83
2022/07/16 03:18:33;;;;;;;5.25;1.92;;;20.80;68.50;;;;;;5045023;28;20629;-84
2022/07/16 03:20:59;;;;;;;4.85;1.75;;;20.70;68.90;;;;;;5063638;28;21189;-83
2022/07/16 03:23:24;;;;;;;6.80;1.80;;;20.70;68.80;;;;;;5046660;28;20406;-84
2022/07/16 03:25:50;;;;;;;5.78;2.35;;;20.50;68.90;;;;;;5045957;28;20055;-82
2022/07/16 03:28:16;;;;;;;4.70;1.95;;;20.50;69.30;;;;;;5062944;28;20029;-82
2022/07/16 03:30:42;;;;;;;6.15;2.25;;;20.50;69.30;;;;;;5043947;28;20047;-84
2022/07/16 03:33:08;;;;;;;4.05;1.63;;;20.40;69.70;;;;;;5063660;28;20033;-84
2022/07/16 03:35:34;;;;;;;4.88;1.48;;;20.30;69.10;;;;;;5062262;28;20411;-84
2022/07/16 03:40:44;;;;;;;4.05;1.50;;;20.70;68.80;;;;;;5026281;28;20080;-84
2022/07/16 03:43:10;;;;;;;3.85;1.63;;;20.90;67.20;;;;;;5044058;28;20068;-84
2022/07/16 03:45:36;;;;;;;7.43;1.70;;;21.10;67.00;;;;;;5042125;28;20580;-84
2022/07/16 03:48:03;;;;;;;5.00;1.25;;;21.40;67.00;;;;;;5010155;28;20065;-84
2022/07/16 03:50:28;;;;;;;8.18;1.60;;;21.70;66.40;;;;;;5043958;28;20037;-83
2022/07/16 03:52:54;;;;;;;4.82;1.15;;;22.00;65.20;;;;;;5042918;28;20422;-87
2022/07/16 03:55:20;;;;;;;2.80;1.05;;;22.10;63.40;;;;;;5041848;28;20083;-86
2022/07/16 03:57:46;;;;;;;2.75;1.25;;;22.10;63.50;;;;;;5042550;28;20596;-87
2022/07/16 04:00:13;;;;;;;3.05;1.20;;;22.40;63.60;;;;;;5025174;28;20095;-86
2022/07/16 04:02:39;;;;;;;2.42;1.10;;;22.60;63.20;;;;;;5024981;28;20426;-83
2022/07/16 04:05:05;;;;;;;4.03;1.30;;;22.80;62.80;;;;;;5042077;28;20036;-85
2022/07/16 04:07:32;;;;;;;3.50;1.17;;;23.00;62.00;;;;;;5034018;28;20033;-84
2022/07/16 04:09:58;;;;;;;2.88;0.90;;;23.10;60.90;;;;;;5042544;28;20396;-83
2022/07/16 04:12:24;;;;;;;3.65;1.40;;;23.30;61.20;;;;;;5042901;28;20037;-85
2022/07/16 04:14:51;;;;;;;1.13;0.75;;;23.40;60.70;;;;;;5034509;28;20047;-83
2022/07/16 04:17:17;;;;;;;5.00;1.17;;;23.60;60.70;;;;;;5041582;28;20033;-83
2022/07/16 04:19:43;;;;;;;2.90;1.05;;;23.80;60.00;;;;;;5043412;28;20032;-85
2022/07/16 04:22:10;;;;;;;2.58;1.10;;;24.00;60.10;;;;;;5040484;28;20041;-86
2022/07/16 04:24:36;;;;;;;4.72;0.82;;;24.00;57.90;;;;;;5040987;28;20033;-85
2022/07/16 04:27:02;;;;;;;2.30;1.05;;;24.10;58.10;;;;;;5043346;28;20086;-85
2022/07/16 04:29:28;;;;;;;3.80;1.05;;;24.10;58.30;;;;;;5042463;28;20041;-84
2022/07/16 04:31:54;;;;;;;3.33;0.80;;;24.20;57.90;;;;;;5042222;28;20365;-84
2022/07/16 04:34:20;;;;;;;3.33;1.35;;;24.30;58.20;;;;;;5042196;28;20124;-84
2022/07/16 04:36:46;;;;;;;4.32;1.10;;;24.60;58.50;;;;;;5024332;28;20077;-84
2022/07/16 04:39:13;;;;;;;3.28;1.25;;;24.70;57.60;;;;;;5044230;28;20064;-85
2022/07/16 04:41:39;;;;;;;2.90;0.70;;;24.90;56.50;;;;;;5040134;28;20130;-84
2022/07/16 04:44:05;;;;;;;1.50;0.50;;;25.00;56.40;;;;;;5042241;28;20067;-83
2022/07/16 04:46:31;;;;;;;3.72;1.02;;;25.20;54.70;;;;;;5044909;28;20040;-83
2022/07/16 04:48:57;;;;;;;2.00;0.65;;;25.30;55.60;;;;;;5027836;28;20044;-81
2022/07/16 04:51:23;;;;;;;3.00;0.60;;;25.50;55.50;;;;;;5028926;28;20753;-84
2022/07/16 04:53:49;;;;;;;2.38;0.50;;;25.70;53.90;;;;;;5041324;28;20037;-84
2022/07/16 04:56:15;;;;;;;1.40;0.50;;;25.70;52.90;;;;;;5023652;28;20049;-83
2022/07/16 04:58:41;;;;;;;2.58;0.60;;;25.90;55.20;;;;;;5012193;28;20025;-83
2022/07/16 05:01:07;;;;;;;0.82;0.50;;;26.00;53.40;;;;;;5042483;28;20047;-83
2022/07/16 05:03:33;;;;;;;2.83;0.65;;;26.00;53.80;;;;;;4994543;28;20074;-81
2022/07/16 05:05:59;;;;;;;3.05;0.82;;;26.20;54.40;;;;;;5009706;28;20116;-83
2022/07/16 05:08:25;;;;;;;3.25;0.68;;;26.30;54.70;;;;;;5040685;28;20565;-83
2022/07/16 05:10:51;;;;;;;2.22;0.90;;;26.40;54.00;;;;;;5040255;28;20082;-83
2022/07/16 05:13:17;;;;;;;1.42;0.88;;;26.50;52.70;;;;;;5023607;28;21169;-83
2022/07/16 05:15:43;;;;;;;1.13;0.70;;;26.60;52.50;;;;;;5040487;28;20037;-83
2022/07/16 05:18:09;;;;;;;2.80;0.52;;;26.80;52.50;;;;;;5024377;28;20044;-84
2022/07/16 05:20:35;;;;;;;2.70;0.70;;;26.90;52.50;;;;;;5039195;28;20038;-83
2022/07/16 05:23:01;;;;;;;2.38;0.68;;;27.00;51.50;;;;;;5034082;28;20044;-83
2022/07/16 05:25:28;;;;;;;3.97;0.90;;;27.10;51.60;;;;;;5016949;28;20032;-82
2022/07/16 05:27:53;;;;;;;2.25;0.70;;;27.10;51.90;;;;;;5040136;28;20575;-82
2022/07/16 05:30:19;;;;;;;1.85;0.88;;;27.20;51.70;;;;;;5015675;28;20460;-84
2022/07/16 05:32:46;;;;;;;1.98;0.90;;;27.30;52.00;;;;;;5040066;28;20060;-85
2022/07/16 05:35:14;;;;;;;0.90;0.60;;;27.40;51.80;;;;;;5022597;28;20120;-84
2022/07/16 05:37:40;;;;;;;3.03;0.90;;;27.50;52.10;;;;;;5039967;28;20495;-83
2022/07/16 05:40:07;;;;;;;3.22;0.60;;;27.60;52.50;;;;;;5026740;28;20041;-82
2022/07/16 05:42:33;;;;;;;2.88;0.88;;;27.70;52.50;;;;;;5043175;28;20032;-83
2022/07/16 05:44:59;;;;;;;2.55;0.70;;;27.70;51.20;;;;;;5022594;28;20033;-84
2022/07/16 05:47:25;;;;;;;3.17;0.77;;;27.90;51.50;;;;;;5010127;28;20178;-86
2022/07/16 05:49:51;;;;;;;2.35;0.73;;;28.00;52.00;;;;;;5041002;28;20033;-85
2022/07/16 05:52:17;;;;;;;0.98;0.43;;;28.10;51.40;;;;;;5039056;28;20454;-82
2022/07/16 05:54:43;;;;;;;2.75;0.65;;;28.20;52.60;;;;;;5027493;28;20074;-84
2022/07/16 05:57:09;;;;;;;1.38;0.52;;;28.30;50.80;;;;;;5045419;28;20032;-85
2022/07/16 05:59:35;;;;;;;0.98;0.60;;;28.40;50.70;;;;;;5009109;28;20799;-84
2022/07/16 06:02:01;;;;;;;1.67;0.70;;;28.50;48.60;;;;;;5043064;28;20101;-82
2022/07/16 06:04:27;;;;;;;0.95;0.50;;;28.60;49.00;;;;;;5044439;28;20053;-89
2022/07/16 06:06:53;;;;;;;1.20;0.60;;;28.70;50.10;;;;;;5049720;28;20214;-85
2022/07/16 06:09:19;;;;;;;1.85;1.02;;;28.80;50.00;;;;;;5015402;28;20029;-92
2022/07/16 06:11:46;;;;;;;2.72;1.10;;;28.80;48.90;;;;;;5030756;28;20033;-86
2022/07/16 06:14:12;;;;;;;0.82;0.68;;;28.90;49.50;;;;;;5047334;28;20103;-87
2022/07/16 06:16:40;;;;;;;1.58;0.80;;;28.80;47.30;;;;;;5024981;28;20025;-89
2022/07/16 06:19:06;;;;;;;5.28;0.95;;;28.70;49.00;;;;;;5026934;28;20045;-91
2022/07/16 06:21:33;;;;;;;3.97;0.70;;;28.70;52.60;;;;;;5026988;28;20041;-83
2022/07/16 06:23:59;;;;;;;4.32;1.00;;;28.40;47.10;;;;;;5026475;28;20489;-84
2022/07/16 06:26:27;;;;;;;4.50;1.08;;;28.20;48.10;;;;;;5009765;28;20064;-82
2022/07/16 06:28:53;;;;;;;2.15;0.90;;;28.10;49.50;;;;;;5036570;28;20029;-85
2022/07/16 06:31:19;;;;;;;4.70;0.82;;;28.10;52.20;;;;;;5014353;28;20561;-83
2022/07/16 06:33:45;;;;;;;2.65;0.82;;;28.10;59.20;;;;;;5030465;28;20057;-82
2022/07/16 06:36:11;;;;;;;2.45;1.10;;;28.20;53.80;;;;;;5044794;28;20037;-83
2022/07/16 06:38:37;;;;;;;2.80;0.90;;;28.20;51.20;;;;;;5017243;28;20476;-84
2022/07/16 06:41:03;;;;;;;3.20;1.00;;;28.20;49.20;;;;;;5013519;28;20058;-84
2022/07/16 06:43:29;;;;;;;3.50;0.90;;;28.20;50.30;;;;;;5030821;28;20088;-86
2022/07/16 06:45:55;;;;;;;1.55;0.80;;;28.20;52.10;;;;;;5030741;28;20084;-86
2022/07/16 06:48:22;;;;;;;2.97;0.80;;;28.20;52.80;;;;;;5012939;28;20068;-87
2022/07/16 06:50:48;;;;;;;4.93;2.08;;;28.30;51.10;;;;;;5031504;28;20121;-86
2022/07/16 06:53:14;;;;;;;3.45;3.13;;;28.20;54.30;;;;;;5025944;28;20037;-89
2022/07/16 06:55:40;;;;;;;9.18;5.53;;;28.20;48.10;;;;;;5031520;28;20037;-85
2022/07/16 06:58:06;;;;;;;11.88;7.63;;;28.10;48.70;;;;;;5024716;28;20045;-88
2022/07/16 07:00:32;;;;;;;11.80;9.55;;;28.00;49.60;;;;;;5011337;28;20492;-87
2022/07/16 07:02:58;;;;;;;15.38;13.13;;;28.10;53.00;;;;;;5027063;28;20033;-88
2022/07/16 07:05:24;;;;;;;14.02;9.20;;;28.10;53.70;;;;;;5034442;28;20392;-83
2022/07/16 07:07:50;;;;;;;10.45;5.50;;;28.00;51.50;;;;;;5022832;28;20103;-93
2022/07/16 07:10:16;;;;;;;7.57;4.68;;;27.90;49.00;;;;;;5025297;28;20519;-95
2022/07/16 07:12:42;;;;;;;6.97;5.25;;;27.70;49.30;;;;;;5013693;28;20041;-93
2022/07/16 07:15:09;;;;;;;10.82;5.40;;;27.50;50.10;;;;;;4998745;28;20116;-92
2022/07/16 07:17:36;;;;;;;13.40;10.00;;;27.50;50.20;;;;;;5039401;28;20547;-90
2022/07/16 07:20:03;;;;;;;6.32;4.43;;;27.60;54.30;;;;;;5027360;28;20040;-88
2022/07/16 07:22:29;;;;;;;7.47;3.72;;;27.50;51.00;;;;;;5022197;28;20060;-85
2022/07/16 07:24:57;;;;;;;5.70;3.10;;;27.60;51.00;;;;;;5029330;28;20069;-85
2022/07/16 07:27:23;;;;;;;14.38;7.72;;;27.50;50.00;;;;;;5034420;28;20064;-83
2022/07/16 07:29:49;;;;;;;5.63;3.15;;;27.60;56.40;;;;;;5032658;28;20565;-85
2022/07/16 07:32:15;;;;;;;3.63;2.25;;;27.60;50.70;;;;;;5021618;28;20415;-83
2022/07/16 07:34:41;;;;;;;6.35;2.60;;;27.50;48.60;;;;;;5024432;28;20060;-82
2022/07/16 07:37:07;;;;;;;8.60;2.53;;;27.50;49.30;;;;;;5032990;28;20408;-85
2022/07/16 07:39:34;;;;;;;5.15;2.22;;;27.50;50.20;;;;;;5032473;28;20550;-81
2022/07/16 07:42:00;;;;;;;5.55;3.28;;;27.50;51.10;;;;;;5049174;28;20432;-81
2022/07/16 07:44:26;;;;;;;6.68;2.53;;;27.50;51.40;;;;;;5027874;28;20037;-84
2022/07/16 07:46:51;;;;;;;9.10;2.83;;;27.50;52.00;;;;;;5033003;28;20030;-84
2022/07/16 07:49:17;;;;;;;4.88;2.10;;;27.50;52.20;;;;;;5032614;28;20034;-84
2022/07/16 07:51:43;;;;;;;9.48;1.80;;;27.50;50.60;;;;;;5030490;28;20038;-86
2022/07/16 07:54:09;;;;;;;6.82;1.63;;;27.50;49.60;;;;;;5025122;28;20037;-86
2022/07/16 07:56:35;;;;;;;4.03;1.60;;;27.50;49.40;;;;;;5021694;28;20403;-84
2022/07/16 07:59:01;;;;;;;3.15;1.92;;;27.30;48.50;;;;;;5021177;28;20124;-85
2022/07/16 08:01:27;;;;;;;6.45;1.60;;;27.30;49.60;;;;;;5021703;28;20645;-84
2022/07/16 08:03:53;;;;;;;5.38;2.00;;;27.20;48.20;;;;;;5020632;28;20128;-81
2022/07/16 08:06:19;;;;;;;6.53;1.90;;;27.20;50.00;;;;;;4990914;28;20083;-85
2022/07/16 08:08:45;;;;;;;5.18;1.80;;;27.30;49.50;;;;;;5020137;28;20065;-80
2022/07/16 08:11:11;;;;;;;4.55;1.40;;;27.20;50.00;;;;;;5021918;28;20036;-83
2022/07/16 08:13:37;;;;;;;3.78;1.00;;;27.20;48.70;;;;;;5024685;28;20038;-83
2022/07/16 08:16:03;;;;;;;5.22;1.48;;;27.00;47.70;;;;;;5021243;28;20053;-85
2022/07/16 08:18:29;;;;;;;7.25;1.77;;;27.00;50.20;;;;;;5031279;28;20496;-88
2022/07/16 08:20:55;;;;;;;2.17;1.52;;;27.10;54.20;;;;;;5009111;28;20123;-86
2022/07/16 08:26:06;;;;;;;2.05;0.93;;;27.10;51.10;;;;;;5023961;28;20119;-83
2022/07/16 08:28:32;;;;;;;2.72;0.98;;;27.00;49.60;;;;;;5023033;28;20123;-88
2022/07/16 08:30:58;;;;;;;3.05;1.25;;;27.00;50.70;;;;;;5020999;28;20037;-92
2022/07/16 08:33:24;;;;;;;8.38;1.25;;;27.10;51.40;;;;;;5004761;28;20382;-87
2022/07/16 08:35:50;;;;;;;5.95;1.33;;;27.10;52.30;;;;;;5022394;28;20036;-85
2022/07/16 08:38:16;;;;;;;3.70;1.50;;;27.00;50.00;;;;;;5023025;28;20029;-87
2022/07/16 08:40:43;;;;;;;7.53;1.50;;;26.90;50.20;;;;;;5027491;28;20132;-90
2022/07/16 08:43:09;;;;;;;3.83;1.45;;;27.00;55.10;;;;;;5026647;28;20504;-90
2022/07/16 08:45:36;;;;;;;6.32;1.30;;;27.00;56.40;;;;;;5027896;28;20061;-89
2022/07/16 08:48:02;;;;;;;7.75;1.85;;;27.10;57.50;;;;;;5026879;28;20084;-88
2022/07/16 08:50:29;;;;;;;6.28;1.83;;;27.10;58.40;;;;;;5021805;28;20033;-87
2022/07/16 08:52:57;;;;;;;4.85;1.30;;;27.10;58.80;;;;;;5026920;28;20045;-83
2022/07/16 08:55:27;;;;;;;4.25;1.42;;;27.10;55.80;;;;;;5026477;28;20038;-89
2022/07/16 08:57:53;;;;;;;4.30;1.40;;;27.20;56.60;;;;;;5023667;28;20508;-86
2022/07/16 09:00:23;;;;;;;5.20;1.40;;;27.20;55.90;;;;;;5022544;28;20038;-87
2022/07/16 09:02:49;;;;;;;2.53;1.30;;;27.20;54.60;;;;;;5023977;28;20175;-85
2022/07/16 09:05:15;;;;;;;6.57;1.35;;;27.20;54.70;;;;;;5022405;28;20695;-83
2022/07/16 09:07:41;;;;;;;6.30;1.40;;;27.20;55.70;;;;;;5027705;28;20037;-87
2022/07/16 09:10:08;;;;;;;8.00;1.42;;;27.20;55.20;;;;;;5028783;28;20052;-84
2022/07/16 09:12:42;;;;;;;5.00;1.23;;;27.10;54.00;;;;;;5024295;28;20072;-82
2022/07/16 09:15:28;;;;;;;3.58;1.42;;;27.10;55.90;;;;;;5024422;28;20492;-87
2022/07/16 09:18:24;;;;;;;5.32;1.60;;;27.10;59.70;;;;;;5022586;28;20417;-84
2022/07/16 09:20:55;;;;;;;4.10;2.10;;;27.10;58.60;;;;;;5021336;28;20091;-85
2022/07/16 09:23:25;;;;;;;3.20;1.50;;;27.10;56.50;;;;;;5020718;28;20064;-86
2022/07/16 09:25:54;;;;;;;6.70;1.50;;;27.10;55.40;;;;;;5019666;28;20029;-85
2022/07/16 09:28:21;;;;;;;4.82;1.55;;;27.10;56.70;;;;;;5020283;28;20034;-86
2022/07/16 09:30:47;;;;;;;4.30;1.63;;;27.10;55.70;;;;;;5023047;28;20041;-84
2022/07/16 09:33:16;;;;;;;9.38;1.77;;;27.10;54.80;;;;;;5024586;28;20404;-84
2022/07/16 09:35:43;;;;;;;7.20;1.58;;;27.10;55.40;;;;;;5019208;28;20034;-86
2022/07/16 09:38:10;;;;;;;4.88;1.40;;;27.10;55.00;;;;;;5021824;28;20349;-85
2022/07/16 09:40:43;;;;;;;5.43;1.70;;;27.10;54.90;;;;;;5019636;28;20051;-84
2022/07/16 09:43:15;;;;;;;4.30;1.15;;;27.10;55.50;;;;;;5020384;28;20032;-85
2022/07/16 09:45:49;;;;;;;3.90;1.58;;;27.00;54.40;;;;;;5021861;28;20116;-85
2022/07/16 09:48:22;;;;;;;2.75;1.27;;;27.00;53.60;;;;;;5021302;28;20044;-83
2022/07/16 09:50:50;;;;;;;2.55;1.15;;;27.00;54.50;;;;;;5022594;28;20384;-84
2022/07/16 09:53:19;;;;;;;2.95;0.90;;;27.00;54.50;;;;;;5021167;28;20034;-83
2022/07/16 09:56:11;;;;;;;1.58;1.02;;;27.00;54.60;;;;;;5020987;28;20037;-84
2022/07/16 09:58:37;;;;;;;2.70;1.25;;;27.00;55.90;;;;;;5019897;28;20034;-84
2022/07/16 10:01:05;;;;;;;2.50;1.02;;;27.00;53.50;;;;;;5019910;28;20038;-84
2022/07/16 10:03:31;;;;;;;1.60;1.00;;;26.90;53.60;;;;;;5020378;28;20049;-84
2022/07/16 10:05:57;;;;;;;2.15;0.98;;;26.80;53.50;;;;;;5019063;28;20033;-84
2022/07/16 10:08:24;;;;;;;2.35;1.10;;;26.90;54.40;;;;;;5020893;28;20119;-83
2022/07/16 10:10:51;;;;;;;3.80;1.00;;;26.90;55.60;;;;;;5035360;28;20039;-83
2022/07/16 10:13:23;;;;;;;2.72;1.10;;;26.80;53.70;;;;;;5018827;28;20172;-80
2022/07/16 10:15:50;;;;;;;3.05;1.30;;;26.80;54.10;;;;;;5047777;28;20404;-82
2022/07/16 10:18:37;;;;;;;2.20;0.93;;;26.80;53.60;;;;;;5026545;28;20048;-83
2022/07/16 10:21:14;;;;;;;3.80;1.15;;;26.80;53.40;;;;;;5030324;28;20030;-84
2022/07/16 10:23:43;;;;;;;4.15;1.10;;;26.80;54.10;;;;;;5008033;28;20057;-84
2022/07/16 10:26:20;;;;;;;2.28;0.77;;;26.70;53.10;;;;;;5020218;28;20132;-84
2022/07/16 10:28:52;;;;;;;2.13;1.00;;;26.70;53.40;;;;;;5023557;28;20460;-84
2022/07/16 10:31:41;;;;;;;1.83;1.13;;;26.60;53.80;;;;;;5020070;28;20117;-85
2022/07/16 10:34:34;;;;;;;1.63;0.50;;;26.70;53.10;;;;;;5029469;28;20030;-84
2022/07/16 10:37:00;;;;;;;2.83;0.82;;;26.70;53.60;;;;;;5009868;28;20034;-84
2022/07/16 10:39:27;;;;;;;2.13;0.70;;;26.70;52.50;;;;;;5024283;28;20046;-84
2022/07/16 10:41:56;;;;;;;4.53;0.90;;;26.60;53.70;;;;;;5041064;28;20045;-86
2022/07/16 10:44:24;;;;;;;2.17;0.70;;;26.60;53.40;;;;;;5019069;28;20029;-83
2022/07/16 10:46:55;;;;;;;2.30;0.77;;;26.70;53.90;;;;;;5028363;28;20056;-82
2022/07/16 10:49:23;;;;;;;1.10;0.70;;;26.70;53.10;;;;;;5044595;28;20032;-85
2022/07/16 10:52:10;;;;;;;1.00;0.70;;;26.60;52.80;;;;;;5044460;28;20037;-84
2022/07/16 10:54:40;;;;;;;3.08;0.60;;;26.60;53.30;;;;;;5031704;28;20102;-84
2022/07/16 10:57:07;;;;;;;4.22;0.73;;;26.60;52.30;;;;;;5035309;28;20115;-84
2022/07/16 10:59:38;;;;;;;1.45;0.63;;;26.60;54.10;;;;;;5043640;28;20045;-84
2022/07/16 11:02:07;;;;;;;2.78;0.88;;;26.60;52.80;;;;;;5019716;28;20484;-84
2022/07/16 11:04:44;;;;;;;1.98;0.75;;;26.60;52.50;;;;;;5044026;28;20071;-84
2022/07/16 11:07:12;;;;;;;3.03;1.10;;;26.60;52.80;;;;;;5024800;28;20483;-84
2022/07/16 11:09:44;;;;;;;1.35;0.90;;;26.60;53.30;;;;;;5025010;28;20053;-83
2022/07/16 11:12:15;;;;;;;1.08;0.80;;;26.50;53.00;;;;;;5043817;28;20118;-84
2022/07/16 11:14:47;;;;;;;2.17;0.95;;;26.50;53.00;;;;;;5013508;28;20032;-84
2022/07/16 11:17:14;;;;;;;1.80;0.70;;;26.50;54.00;;;;;;5025305;28;20356;-81
2022/07/16 11:19:48;;;;;;;1.02;0.70;;;26.50;55.10;;;;;;5043857;28;20109;-84
2022/07/16 11:22:17;;;;;;;1.10;0.70;;;26.60;55.30;;;;;;5042199;28;20044;-85
2022/07/16 11:24:51;;;;;;;4.35;0.80;;;26.60;54.30;;;;;;5009636;28;20029;-83
2022/07/16 11:27:24;;;;;;;2.42;0.70;;;26.60;53.60;;;;;;5024568;28;20033;-85
2022/07/16 11:29:58;;;;;;;3.03;0.70;;;26.60;53.20;;;;;;5008598;28;20522;-84
2022/07/16 11:32:25;;;;;;;2.85;0.90;;;26.60;54.40;;;;;;5030156;28;20167;-83
2022/07/16 11:34:51;;;;;;;1.00;0.70;;;26.50;54.60;;;;;;5034828;28;20445;-84
2022/07/16 11:37:17;;;;;;;3.13;0.80;;;26.50;53.30;;;;;;4996304;28;20029;-82
2022/07/16 11:39:43;;;;;;;1.75;0.80;;;26.50;53.00;;;;;;5044355;28;20033;-83
2022/07/16 11:42:10;;;;;;;2.42;0.80;;;26.50;53.70;;;;;;5042534;28;20044;-84
2022/07/16 11:44:40;;;;;;;2.13;0.98;;;26.50;53.40;;;;;;5013241;28;20461;-81
2022/07/16 11:47:08;;;;;;;1.45;0.90;;;26.40;53.70;;;;;;5044988;28;20150;-84
2022/07/16 11:49:43;;;;;;;1.27;0.73;;;26.40;53.10;;;;;;5034817;28;20132;-84
2022/07/16 11:52:24;;;;;;;1.35;0.60;;;26.40;53.30;;;;;;5024788;28;20471;-83
2022/07/16 11:54:52;;;;;;;2.10;0.88;;;26.40;53.20;;;;;;5042309;28;20032;-83
2022/07/16 11:57:19;;;;;;;1.50;0.70;;;26.40;53.40;;;;;;5012908;28;20029;-83
2022/07/16 11:59:47;;;;;;;2.00;0.70;;;26.40;53.80;;;;;;5011761;28;20029;-84
2022/07/16 12:02:19;;;;;;;1.50;0.63;;;26.40;52.90;;;;;;5041710;28;20060;-83
2022/07/16 12:04:50;;;;;;;1.55;0.70;;;26.40;52.60;;;;;;5026033;28;20080;-83
2022/07/16 12:07:23;;;;;;;1.10;0.70;;;26.40;53.00;;;;;;5035339;28;20029;-83
2022/07/16 12:09:51;;;;;;;2.25;0.60;;;26.30;52.70;;;;;;5039653;28;20035;-84
2022/07/16 12:12:19;;;;;;;3.45;0.80;;;26.30;52.80;;;;;;5024511;28;20033;-83
2022/07/16 12:14:53;;;;;;;1.55;0.80;;;26.30;53.10;;;;;;5042996;28;20048;-84
2022/07/16 12:17:21;;;;;;;2.72;1.00;;;26.40;52.60;;;;;;5025445;28;20124;-81
2022/07/16 12:20:12;;;;;;;0.95;0.63;;;26.30;53.00;;;;;;5043354;28;20028;-83
2022/07/16 12:23:01;;;;;;;0.77;0.40;;;26.40;52.30;;;;;;5024431;28;20041;-84
2022/07/16 12:25:34;;;;;;;2.80;0.90;;;26.30;53.00;;;;;;5043121;28;20033;-84
2022/07/16 12:28:09;;;;;;;2.08;0.70;;;26.30;53.00;;;;;;5025765;28;20037;-84
2022/07/16 12:30:40;;;;;;;1.00;0.90;;;26.30;53.10;;;;;;5042483;28;20041;-83
2022/07/16 12:33:24;;;;;;;4.03;1.00;;;26.30;53.70;;;;;;5028301;28;20049;-84
2022/07/16 12:36:02;;;;;;;0.85;0.60;;;26.30;54.00;;;;;;5042537;28;20060;-84
2022/07/16 12:38:53;;;;;;;1.98;1.20;;;26.30;53.20;;;;;;5041201;28;20032;-84
2022/07/16 12:41:43;;;;;;;1.10;0.60;;;26.30;53.10;;;;;;5040218;28;20049;-84
2022/07/16 12:44:12;;;;;;;1.25;0.68;;;26.30;53.70;;;;;;5042493;28;20033;-84
2022/07/16 12:46:46;;;;;;;1.80;0.85;;;26.30;53.50;;;;;;5013060;28;20045;-83
2022/07/16 12:49:15;;;;;;;2.92;0.70;;;26.30;53.30;;;;;;5057382;28;20090;-84
2022/07/16 12:51:48;;;;;;;1.23;0.90;;;26.30;54.50;;;;;;5055620;28;20045;-82
2022/07/16 12:54:15;;;;;;;1.75;0.85;;;26.20;54.70;;;;;;5042237;28;20582;-83
2022/07/16 12:59:29;;;;;;;2.22;0.68;;;26.20;53.50;;;;;;5011544;28;20028;-84